createdAt,value
2022-11-13T00:04:02.152Z,0.10
2022-11-13T00:09:07.570Z,0.40
2022-11-13T00:14:12.747Z,0.60
2022-11-13T00:19:18.186Z,0.80
2022-11-13T00:24:23.189Z,0.80
2022-11-13T00:29:28.843Z,0.90
2022-11-13T00:34:47.026Z,0.80
2022-11-13T00:39:40.935Z,0.80
2022-11-13T00:44:46.473Z,0.80
2022-11-13T00:49:51.358Z,0.60
2022-11-13T00:54:56.522Z,0.50
2022-11-13T01:00:01.548Z,0.70
2022-11-13T01:05:07.262Z,0.70
2022-11-13T01:10:13.396Z,0.70
2022-11-13T01:15:18.995Z,0.90
2022-11-13T01:20:26.236Z,0.80
2022-11-13T01:25:33.748Z,0.70
2022-11-13T01:30:40.358Z,0.40
2022-11-13T01:35:46.121Z,0.60
2022-11-13T01:40:50.995Z,0.50
2022-11-13T01:46:05.128Z,0.50
2022-11-13T01:51:21.223Z,0.60
2022-11-13T01:56:26.884Z,0.70
2022-11-13T02:01:32.374Z,0.10
2022-11-13T02:06:43.205Z,0.20
2022-11-13T02:11:48.652Z,0.20
2022-11-13T02:16:57.578Z,0.50
2022-11-13T02:22:22.948Z,0.50
2022-11-13T02:27:49.349Z,0.50
2022-11-13T02:32:56.727Z,0.20
2022-11-13T02:38:04.597Z,0.00
2022-11-13T02:43:10.298Z,-0.30
2022-11-13T02:48:15.939Z,0.00
2022-11-13T02:53:22.370Z,0.10
2022-11-13T02:58:27.962Z,0.10
2022-11-13T03:03:57.078Z,0.20
2022-11-13T03:08:41.480Z,0.20
2022-11-13T03:13:46.335Z,0.30
2022-11-13T03:18:51.953Z,-0.20
2022-11-13T03:23:57.429Z,-1.00
2022-11-13T03:29:02.527Z,-0.30
2022-11-13T03:34:09.689Z,0.00
2022-11-13T03:39:15.258Z,-0.10
2022-11-13T03:44:21.002Z,-0.10
2022-11-13T03:49:26.699Z,-0.20
2022-11-13T03:54:31.864Z,-0.20
2022-11-13T03:59:36.916Z,-0.10
2022-11-13T04:04:41.936Z,-0.40
2022-11-13T04:09:47.495Z,-0.40
2022-11-13T04:14:52.428Z,-0.40
2022-11-13T04:19:57.321Z,-0.70
2022-11-13T04:25:02.209Z,-0.70
2022-11-13T04:30:09.967Z,-0.80
2022-11-13T04:35:15.525Z,-0.50
2022-11-13T04:40:21.387Z,-0.40
2022-11-13T04:45:29.997Z,-0.20
2022-11-13T04:50:35.644Z,-0.50
2022-11-13T04:55:41.145Z,-0.20
2022-11-13T05:00:46.748Z,-0.30
2022-11-13T05:05:51.638Z,-0.70
2022-11-13T05:10:57.212Z,-0.80
2022-11-13T05:16:04.087Z,-0.80
2022-11-13T05:21:10.998Z,-0.70
2022-11-13T05:26:16.914Z,-0.60
2022-11-13T05:31:22.126Z,-0.60
2022-11-13T05:36:27.061Z,-0.60
2022-11-13T05:41:33.004Z,-0.70
2022-11-13T05:46:38.022Z,-0.90
2022-11-13T05:51:43.362Z,-0.80
2022-11-13T05:56:50.349Z,-0.60
2022-11-13T06:01:55.281Z,-1.00
2022-11-13T06:07:00.607Z,-1.00
2022-11-13T06:12:05.808Z,-1.10
2022-11-13T06:17:11.829Z,-1.10
2022-11-13T06:22:17.024Z,-0.90
2022-11-13T06:27:22.671Z,-0.80
2022-11-13T06:32:27.565Z,-0.70
2022-11-13T06:37:34.703Z,-0.70
2022-11-13T06:42:39.754Z,-0.50
2022-11-13T06:47:44.644Z,-0.50
2022-11-13T06:52:50.225Z,-0.60
2022-11-13T06:57:56.186Z,-0.90
2022-11-13T07:03:01.419Z,-0.70
2022-11-13T07:08:06.562Z,-0.60
2022-11-13T07:13:12.026Z,-0.20
2022-11-13T07:18:21.492Z,0.40
2022-11-13T07:23:25.049Z,0.70
2022-11-13T07:28:30.741Z,0.70
2022-11-13T07:33:36.360Z,0.50
2022-11-13T07:38:43.006Z,1.10
2022-11-13T07:43:48.153Z,1.30
2022-11-13T07:48:53.531Z,2.10
2022-11-13T07:53:58.569Z,2.70
2022-11-13T07:59:03.561Z,2.90
2022-11-13T08:04:08.929Z,3.40
2022-11-13T08:09:15.480Z,3.80
2022-11-13T08:14:20.455Z,4.00
2022-11-13T08:19:25.727Z,4.50
2022-11-13T08:24:30.912Z,5.10
2022-11-13T08:29:37.704Z,5.40
2022-11-13T08:34:41.809Z,5.70
2022-11-13T08:39:47.648Z,6.00
2022-11-13T08:44:53.284Z,6.50
2022-11-13T08:49:58.579Z,6.40
2022-11-13T08:55:04.006Z,7.00
2022-11-13T09:00:11.668Z,6.90
2022-11-13T09:05:17.042Z,7.50
2022-11-13T09:10:22.486Z,7.40
2022-11-13T09:15:27.748Z,7.70
2022-11-13T09:20:35.591Z,7.80
2022-11-13T09:25:41.360Z,7.80
2022-11-13T09:30:46.582Z,8.10
2022-11-13T09:35:51.972Z,8.30
2022-11-13T09:41:00.178Z,8.40
2022-11-13T09:46:08.991Z,8.70
2022-11-13T09:51:26.007Z,8.60
2022-11-13T09:56:42.809Z,8.70
2022-11-13T10:02:03.772Z,8.90
2022-11-13T10:07:14.774Z,9.40
2022-11-13T10:12:21.495Z,9.20
2022-11-13T10:17:56.637Z,9.60
2022-11-13T10:23:04.085Z,9.60
2022-11-13T10:33:31.337Z,11.00
2022-11-13T10:38:44.475Z,11.20
2022-11-13T10:43:55.400Z,11.40
2022-11-13T10:49:22.583Z,11.00
2022-11-13T10:54:33.084Z,11.40
2022-11-13T10:59:43.688Z,11.60
2022-11-13T11:04:50.556Z,11.80
2022-11-13T11:09:55.750Z,11.90
2022-11-13T11:15:07.992Z,12.10
2022-11-13T11:20:48.354Z,12.10
2022-11-13T11:25:59.696Z,12.20
2022-11-13T11:31:11.951Z,12.20
2022-11-13T11:36:38.097Z,12.20
2022-11-13T11:41:49.250Z,12.20
2022-11-13T11:46:54.619Z,12.20
2022-11-13T11:52:03.240Z,12.00
2022-11-13T11:57:28.209Z,12.10
2022-11-13T12:02:39.345Z,12.20
2022-11-13T12:08:05.735Z,12.20
2022-11-13T12:13:16.579Z,12.30
2022-11-13T12:18:27.673Z,12.30
2022-11-13T12:23:42.439Z,12.40
2022-11-13T12:28:50.688Z,12.50
2022-11-13T12:34:14.150Z,12.40
2022-11-13T12:39:23.181Z,12.20
2022-11-13T12:44:30.742Z,12.40
2022-11-13T12:49:37.663Z,12.40
2022-11-13T12:54:42.910Z,12.50
2022-11-13T12:59:54.433Z,12.50
2022-11-13T13:05:26.697Z,12.20
2022-11-13T13:10:52.630Z,12.10
2022-11-13T13:16:07.322Z,12.10
2022-11-13T13:21:17.928Z,12.00
2022-11-13T13:26:28.893Z,11.90
2022-11-13T13:31:55.596Z,11.90
2022-11-13T13:37:03.894Z,11.80
2022-11-13T13:42:31.657Z,11.70
2022-11-13T13:47:43.298Z,11.50
2022-11-13T13:52:55.490Z,11.30
2022-11-13T13:58:00.332Z,11.30
2022-11-13T14:03:04.063Z,11.30
2022-11-13T14:08:10.637Z,11.00
2022-11-13T14:13:18.188Z,11.00
2022-11-13T14:18:23.518Z,10.90
2022-11-13T14:23:34.686Z,10.70
2022-11-13T14:28:53.280Z,10.70
2022-11-13T14:33:56.299Z,10.50
2022-11-13T14:39:01.849Z,10.20
2022-11-13T14:44:08.415Z,10.10
2022-11-13T14:49:14.045Z,9.90
2022-11-13T14:59:44.246Z,9.50
2022-11-13T15:04:49.509Z,9.40
2022-11-13T15:09:57.075Z,9.00
2022-11-13T15:15:03.272Z,8.70
2022-11-13T15:20:10.220Z,8.70
2022-11-13T15:25:15.656Z,8.40
2022-11-13T15:30:21.657Z,8.10
2022-11-13T15:35:27.767Z,8.00
2022-11-13T15:40:33.717Z,7.70
2022-11-13T15:45:43.811Z,7.60
2022-11-13T15:50:46.713Z,7.00
2022-11-13T15:55:52.514Z,6.70
2022-11-13T16:00:58.559Z,6.80
2022-11-13T16:06:04.132Z,6.50
2022-11-13T16:11:13.546Z,6.40
2022-11-13T16:16:25.146Z,6.50
2022-11-13T16:21:31.628Z,6.10
2022-11-13T16:26:36.981Z,6.20
2022-11-13T16:31:42.129Z,5.80
2022-11-13T16:36:47.833Z,5.50
2022-11-13T16:41:52.623Z,5.60
2022-11-13T16:46:57.553Z,5.50
2022-11-13T16:52:02.824Z,5.40
2022-11-13T16:57:09.639Z,5.20
2022-11-13T17:02:16.633Z,5.10
2022-11-13T17:07:22.211Z,4.80
2022-11-13T17:12:27.197Z,4.90
2022-11-13T17:17:33.058Z,4.80
2022-11-13T17:22:38.721Z,4.60
2022-11-13T17:27:45.494Z,4.60
2022-11-13T17:32:50.690Z,4.20
2022-11-13T17:37:56.605Z,3.90
2022-11-13T17:43:02.177Z,4.10
2022-11-13T17:48:07.588Z,4.10
2022-11-13T17:53:14.683Z,4.10
2022-11-13T17:58:20.083Z,3.90
2022-11-13T18:03:25.205Z,3.70
2022-11-13T18:08:30.614Z,3.30
2022-11-13T18:13:36.761Z,3.30
2022-11-13T18:18:42.874Z,3.60
2022-11-13T18:23:47.981Z,3.40
2022-11-13T18:28:53.592Z,3.10
2022-11-13T18:34:04.552Z,3.30
2022-11-13T18:39:16.394Z,3.30
2022-11-13T18:44:19.212Z,2.60
2022-11-13T18:49:25.449Z,2.40
2022-11-13T18:54:30.397Z,2.10
2022-11-13T18:59:35.403Z,2.40
2022-11-13T19:04:41.098Z,2.20
2022-11-13T19:09:47.783Z,2.30
2022-11-13T19:14:53.993Z,2.10
2022-11-13T19:19:59.045Z,2.10
2022-11-13T19:25:04.083Z,2.00
2022-11-13T19:30:09.287Z,2.00
2022-11-13T19:35:14.444Z,2.10
2022-11-13T19:40:22.421Z,2.30
2022-11-13T19:45:29.520Z,2.20
2022-11-13T19:50:35.071Z,2.30
2022-11-13T19:55:41.104Z,1.80
2022-11-13T20:00:46.247Z,1.90
2022-11-13T20:05:53.801Z,1.90
2022-11-13T20:11:04.052Z,2.20
2022-11-13T20:16:11.234Z,2.10
2022-11-13T20:21:17.896Z,2.20
2022-11-13T20:26:23.644Z,2.00
2022-11-13T20:31:29.991Z,1.60
2022-11-13T20:36:35.241Z,1.80
2022-11-13T20:41:40.385Z,1.70
2022-11-13T20:46:46.271Z,1.90
2022-11-13T20:51:55.957Z,2.10
2022-11-13T20:56:59.070Z,2.00
2022-11-13T21:02:04.240Z,2.00
2022-11-13T21:07:09.499Z,1.90
2022-11-13T21:12:14.379Z,1.80
2022-11-13T21:17:20.149Z,1.90
2022-11-13T21:22:25.516Z,1.90
2022-11-13T21:27:30.880Z,1.90
2022-11-13T21:32:37.425Z,2.00
2022-11-13T21:37:42.697Z,1.60
2022-11-13T21:42:47.809Z,1.70
2022-11-13T21:47:53.996Z,1.60
2022-11-13T21:52:59.241Z,2.10
2022-11-13T21:58:04.397Z,2.10
2022-11-13T22:03:09.666Z,1.90
2022-11-13T22:08:15.037Z,2.00
2022-11-13T22:13:21.239Z,2.40
2022-11-13T22:18:27.678Z,2.30
2022-11-13T22:23:34.069Z,2.30
2022-11-13T22:28:40.999Z,2.20
2022-11-13T22:33:50.444Z,2.40
2022-11-13T22:38:54.388Z,2.20
2022-11-13T22:44:06.080Z,3.20
2022-11-13T22:49:13.782Z,2.80
2022-11-13T22:54:18.853Z,4.00
2022-11-13T22:59:24.169Z,4.40
2022-11-13T23:04:29.338Z,4.50
2022-11-13T23:09:34.256Z,3.80
2022-11-13T23:14:40.284Z,4.30
2022-11-13T23:19:47.284Z,7.10
2022-11-13T23:24:52.785Z,8.40
2022-11-13T23:29:58.258Z,8.60
2022-11-13T23:35:03.665Z,9.60
2022-11-13T23:40:09.320Z,9.90
2022-11-13T23:45:14.222Z,9.90
2022-11-13T23:50:19.601Z,9.90
2022-11-13T23:55:24.916Z,9.60
